createdAt,value
2022-10-05T00:00:41.374Z,1013.45
2022-10-05T00:01:41.775Z,1013.45
2022-10-05T00:02:41.375Z,1013.44
2022-10-05T00:03:41.370Z,1013.42
2022-10-05T00:04:41.378Z,1013.41
2022-10-05T00:06:06.379Z,1013.37
2022-10-05T00:06:41.324Z,1013.36
2022-10-05T00:07:41.347Z,1013.35
2022-10-05T00:08:41.282Z,1013.36
2022-10-05T00:09:41.324Z,1013.33
2022-10-05T00:10:47.995Z,1013.32
2022-10-05T00:11:41.254Z,1013.30
2022-10-05T00:12:41.343Z,1013.30
2022-10-05T00:13:41.234Z,1013.29
2022-10-05T00:14:41.227Z,1013.28
2022-10-05T00:15:41.247Z,1013.28
2022-10-05T00:16:41.249Z,1013.27
2022-10-05T00:17:41.207Z,1013.26
2022-10-05T00:18:41.207Z,1013.24
2022-10-05T00:21:15.580Z,1013.19
2022-10-05T00:22:16.582Z,1013.16
2022-10-05T00:23:16.473Z,1013.16
2022-10-05T00:24:16.149Z,1013.16
2022-10-05T00:25:16.265Z,1013.17
2022-10-05T00:26:16.190Z,1013.18
2022-10-05T00:27:16.193Z,1013.19
2022-10-05T00:28:16.161Z,1013.20
2022-10-05T00:29:16.153Z,1013.20
2022-10-05T00:30:16.257Z,1013.21
2022-10-05T00:31:16.559Z,1013.20
2022-10-05T00:32:16.087Z,1013.22
2022-10-05T00:33:16.130Z,1013.24
2022-10-05T00:34:16.098Z,1013.28
2022-10-05T00:35:15.990Z,1013.28
2022-10-05T00:36:16.047Z,1013.29
2022-10-05T00:37:16.004Z,1013.27
2022-10-05T00:38:16.121Z,1013.26
2022-10-05T00:39:16.121Z,1013.27
2022-10-05T00:40:16.025Z,1013.27
2022-10-05T00:41:16.055Z,1013.26
2022-10-05T00:42:16.008Z,1013.24
2022-10-05T00:43:15.978Z,1013.23
2022-10-05T00:44:16.005Z,1013.24
2022-10-05T00:45:16.057Z,1013.25
2022-10-05T00:46:16.028Z,1013.23
2022-10-05T00:47:15.958Z,1013.23
2022-10-05T00:48:16.083Z,1013.20
2022-10-05T00:49:15.995Z,1013.20
2022-10-05T00:50:15.901Z,1013.18
2022-10-05T00:51:15.881Z,1013.19
2022-10-05T00:52:15.838Z,1013.20
2022-10-05T00:53:15.789Z,1013.19
2022-10-05T00:54:18.364Z,1013.18
2022-10-05T00:55:15.917Z,1013.16
2022-10-05T00:56:15.842Z,1013.16
2022-10-05T00:57:15.894Z,1013.14
2022-10-05T00:58:15.841Z,1013.12
2022-10-05T00:59:15.821Z,1013.11
2022-10-05T01:00:15.766Z,1013.11
2022-10-05T01:01:15.856Z,1013.12
2022-10-05T01:02:15.880Z,1013.09
2022-10-05T01:03:15.753Z,1013.06
2022-10-05T01:04:15.679Z,1013.04
2022-10-05T01:05:15.802Z,1013.02
2022-10-05T01:06:15.681Z,1012.98
2022-10-05T01:07:15.699Z,1012.96
2022-10-05T01:08:16.595Z,1012.94
2022-10-05T01:09:15.748Z,1012.92
2022-10-05T01:10:15.768Z,1012.90
2022-10-05T01:11:15.722Z,1012.90
2022-10-05T01:12:15.927Z,1012.89
2022-10-05T01:13:15.633Z,1012.89
2022-10-05T01:14:15.649Z,1012.90
2022-10-05T01:15:15.649Z,1012.90
2022-10-05T01:16:15.684Z,1012.92
2022-10-05T01:17:15.601Z,1012.94
2022-10-05T01:18:15.707Z,1012.95
2022-10-05T01:19:15.561Z,1012.95
2022-10-05T01:20:15.534Z,1012.96
2022-10-05T01:21:15.638Z,1012.97
2022-10-05T01:22:15.503Z,1012.97
2022-10-05T01:23:15.500Z,1012.95
2022-10-05T01:24:15.577Z,1012.95
2022-10-05T01:25:15.454Z,1012.91
2022-10-05T01:26:15.604Z,1012.89
2022-10-05T01:27:15.480Z,1012.87
2022-10-05T01:28:15.740Z,1012.87
2022-10-05T01:29:15.583Z,1012.88
2022-10-05T01:30:15.533Z,1012.89
2022-10-05T01:31:15.604Z,1012.91
2022-10-05T01:32:15.510Z,1012.92
2022-10-05T01:33:15.396Z,1012.91
2022-10-05T01:34:15.472Z,1012.88
2022-10-05T01:35:15.400Z,1012.86
2022-10-05T01:36:15.358Z,1012.84
2022-10-05T01:37:15.495Z,1012.81
2022-10-05T01:38:15.440Z,1012.78
2022-10-05T01:39:15.392Z,1012.74
2022-10-05T01:40:15.403Z,1012.72
2022-10-05T01:41:15.424Z,1012.68
2022-10-05T01:42:15.408Z,1012.67
2022-10-05T01:43:15.392Z,1012.65
2022-10-05T01:44:15.436Z,1012.64
2022-10-05T01:45:15.228Z,1012.62
2022-10-05T01:46:15.408Z,1012.61
2022-10-05T01:47:15.379Z,1012.59
2022-10-05T01:48:15.241Z,1012.59
2022-10-05T01:49:15.357Z,1012.57
2022-10-05T01:50:15.325Z,1012.57
2022-10-05T01:51:15.273Z,1012.56
2022-10-05T01:52:15.438Z,1012.55
2022-10-05T01:53:15.318Z,1012.55
2022-10-05T01:54:15.264Z,1012.56
2022-10-05T01:55:15.250Z,1012.55
2022-10-05T01:56:15.166Z,1012.54
2022-10-05T01:57:15.322Z,1012.54
2022-10-05T01:58:15.306Z,1012.52
2022-10-05T01:59:15.190Z,1012.54
2022-10-05T02:00:15.217Z,1012.52
2022-10-05T02:01:15.148Z,1012.50
2022-10-05T02:02:15.188Z,1012.51
2022-10-05T02:03:15.125Z,1012.51
2022-10-05T02:04:30.826Z,1012.53
2022-10-05T02:05:15.147Z,1012.55
2022-10-05T02:06:15.097Z,1012.58
2022-10-05T02:07:15.068Z,1012.61
2022-10-05T02:08:15.107Z,1012.62
2022-10-05T02:09:15.059Z,1012.62
2022-10-05T02:10:15.073Z,1012.61
2022-10-05T02:11:15.061Z,1012.61
2022-10-05T02:12:15.062Z,1012.59
2022-10-05T02:13:15.095Z,1012.56
2022-10-05T02:14:15.101Z,1012.56
2022-10-05T02:15:14.984Z,1012.55
2022-10-05T02:16:15.140Z,1012.56
2022-10-05T02:17:14.995Z,1012.58
2022-10-05T02:18:15.034Z,1012.59
2022-10-05T02:19:14.949Z,1012.62
2022-10-05T02:20:15.179Z,1012.60
2022-10-05T02:21:14.916Z,1012.58
2022-10-05T02:22:14.994Z,1012.56
2022-10-05T02:23:14.877Z,1012.56
2022-10-05T02:24:14.988Z,1012.55
2022-10-05T02:25:14.850Z,1012.55
2022-10-05T02:26:14.910Z,1012.52
2022-10-05T02:27:14.870Z,1012.51
2022-10-05T02:28:14.950Z,1012.49
2022-10-05T02:29:14.828Z,1012.46
2022-10-05T02:30:16.675Z,1012.44
2022-10-05T02:31:14.829Z,1012.43
2022-10-05T02:32:14.812Z,1012.41
2022-10-05T02:33:14.868Z,1012.39
2022-10-05T02:34:14.846Z,1012.39
2022-10-05T02:35:14.897Z,1012.40
2022-10-05T02:36:14.837Z,1012.41
2022-10-05T02:37:15.019Z,1012.40
2022-10-05T02:38:14.850Z,1012.39
2022-10-05T02:39:14.882Z,1012.39
2022-10-05T02:40:14.980Z,1012.38
2022-10-05T02:41:14.947Z,1012.36
2022-10-05T02:42:14.729Z,1012.35
2022-10-05T02:43:14.808Z,1012.33
2022-10-05T02:44:14.673Z,1012.31
2022-10-05T02:45:14.687Z,1012.29
2022-10-05T02:46:14.815Z,1012.26
2022-10-05T02:47:14.720Z,1012.25
2022-10-05T02:48:14.592Z,1012.24
2022-10-05T02:49:14.625Z,1012.23
2022-10-05T02:50:14.738Z,1012.22
2022-10-05T02:51:14.717Z,1012.22
2022-10-05T02:52:14.576Z,1012.21
2022-10-05T02:53:14.576Z,1012.21
2022-10-05T02:54:14.554Z,1012.20
2022-10-05T02:55:14.561Z,1012.23
2022-10-05T02:56:14.504Z,1012.26
2022-10-05T02:57:14.644Z,1012.21
2022-10-05T02:58:14.521Z,1012.20
2022-10-05T02:59:14.521Z,1012.22
2022-10-05T03:00:14.616Z,1012.17
2022-10-05T03:01:14.553Z,1012.13
2022-10-05T03:02:14.607Z,1012.14
2022-10-05T03:03:14.529Z,1012.15
2022-10-05T03:04:14.588Z,1012.13
2022-10-05T03:05:14.460Z,1012.12
2022-10-05T03:06:14.674Z,1012.11
2022-10-05T03:07:14.394Z,1012.11
2022-10-05T03:08:14.458Z,1012.10
2022-10-05T03:09:14.400Z,1012.08
2022-10-05T03:10:14.541Z,1012.07
2022-10-05T03:11:14.362Z,1012.06
2022-10-05T03:12:14.340Z,1012.06
2022-10-05T03:13:14.380Z,1012.02
2022-10-05T03:14:14.407Z,1011.99
2022-10-05T03:15:14.287Z,1011.91
2022-10-05T03:16:14.409Z,1011.91
2022-10-05T03:17:14.374Z,1011.89
2022-10-05T03:18:14.348Z,1011.85
2022-10-05T03:19:14.342Z,1011.81
2022-10-05T03:20:14.271Z,1011.77
2022-10-05T03:21:14.232Z,1011.75
2022-10-05T03:22:14.362Z,1011.73
2022-10-05T03:23:14.225Z,1011.76
2022-10-05T03:24:14.227Z,1011.74
2022-10-05T03:25:14.216Z,1011.74
2022-10-05T03:26:14.238Z,1011.72
2022-10-05T03:27:14.180Z,1011.72
2022-10-05T03:28:14.290Z,1011.72
2022-10-05T03:29:14.175Z,1011.72
2022-10-05T03:30:14.253Z,1011.69
2022-10-05T03:31:14.281Z,1011.68
2022-10-05T03:32:14.139Z,1011.68
2022-10-05T03:33:14.087Z,1011.67
2022-10-05T03:34:14.133Z,1011.67
2022-10-05T03:35:14.100Z,1011.65
2022-10-05T03:36:14.195Z,1011.67
2022-10-05T03:37:14.115Z,1011.68
2022-10-05T03:38:14.078Z,1011.68
2022-10-05T03:39:14.050Z,1011.67
2022-10-05T03:40:14.148Z,1011.66
2022-10-05T03:41:14.052Z,1011.65
2022-10-05T03:42:14.098Z,1011.66
2022-10-05T03:43:14.033Z,1011.66
2022-10-05T03:44:14.040Z,1011.66
2022-10-05T03:45:14.031Z,1011.67
2022-10-05T03:46:14.091Z,1011.69
2022-10-05T03:47:13.953Z,1011.64
2022-10-05T03:48:13.984Z,1011.61
2022-10-05T03:49:13.903Z,1011.59
2022-10-05T03:50:13.967Z,1011.56
2022-10-05T03:51:13.954Z,1011.54
2022-10-05T03:52:13.930Z,1011.57
2022-10-05T03:53:13.854Z,1011.54
2022-10-05T03:54:13.891Z,1011.59
2022-10-05T03:55:13.896Z,1011.57
2022-10-05T03:56:13.871Z,1011.54
2022-10-05T03:57:13.889Z,1011.48
2022-10-05T03:58:13.856Z,1011.47
2022-10-05T03:59:13.936Z,1011.49
2022-10-05T04:00:13.890Z,1011.52
2022-10-05T04:01:13.889Z,1011.53
2022-10-05T04:02:13.950Z,1011.54
2022-10-05T04:03:13.816Z,1011.54
2022-10-05T04:04:13.866Z,1011.55
2022-10-05T04:05:13.779Z,1011.58
2022-10-05T04:06:13.845Z,1011.59
2022-10-05T04:07:13.884Z,1011.56
2022-10-05T04:08:13.873Z,1011.55
2022-10-05T04:09:13.771Z,1011.50
2022-10-05T04:10:13.737Z,1011.47
2022-10-05T04:11:13.734Z,1011.44
2022-10-05T04:12:13.727Z,1011.39
2022-10-05T04:13:13.696Z,1011.33
2022-10-05T04:14:13.805Z,1011.31
2022-10-05T04:15:18.039Z,1011.31
2022-10-05T04:16:13.842Z,1011.34
2022-10-05T04:17:13.635Z,1011.35
2022-10-05T04:18:13.633Z,1011.36
2022-10-05T04:19:13.676Z,1011.39
2022-10-05T04:20:13.712Z,1011.39
2022-10-05T04:21:13.656Z,1011.41
2022-10-05T04:22:13.591Z,1011.42
2022-10-05T04:23:13.588Z,1011.47
2022-10-05T04:24:13.649Z,1011.48
2022-10-05T04:25:13.596Z,1011.49
2022-10-05T04:26:13.548Z,1011.47
2022-10-05T04:27:13.616Z,1011.45
2022-10-05T04:28:13.569Z,1011.48
2022-10-05T04:29:13.570Z,1011.48
2022-10-05T04:30:13.537Z,1011.49
2022-10-05T04:31:13.553Z,1011.47
2022-10-05T04:32:13.594Z,1011.48
2022-10-05T04:33:13.475Z,1011.48
2022-10-05T04:34:13.497Z,1011.49
2022-10-05T04:35:13.425Z,1011.49
2022-10-05T04:36:13.442Z,1011.49
2022-10-05T04:37:13.410Z,1011.50
2022-10-05T04:38:13.499Z,1011.51
2022-10-05T04:39:13.504Z,1011.52
2022-10-05T04:40:13.448Z,1011.54
2022-10-05T04:41:13.434Z,1011.54
2022-10-05T04:42:13.329Z,1011.55
2022-10-05T04:43:13.420Z,1011.54
2022-10-05T04:44:13.391Z,1011.55
2022-10-05T04:45:13.393Z,1011.58
2022-10-05T04:46:13.410Z,1011.59
2022-10-05T04:47:13.338Z,1011.57
2022-10-05T04:48:13.311Z,1011.55
2022-10-05T04:49:13.295Z,1011.54
2022-10-05T04:50:13.290Z,1011.55
2022-10-05T04:51:13.288Z,1011.56
2022-10-05T04:52:13.286Z,1011.54
2022-10-05T04:53:13.329Z,1011.53
2022-10-05T04:54:13.361Z,1011.54
2022-10-05T04:55:13.305Z,1011.54
2022-10-05T04:56:13.266Z,1011.56
2022-10-05T04:57:13.287Z,1011.54
2022-10-05T04:58:13.181Z,1011.54
2022-10-05T04:59:13.171Z,1011.53
2022-10-05T05:00:13.238Z,1011.52
2022-10-05T05:01:13.306Z,1011.50
2022-10-05T05:02:13.131Z,1011.55
2022-10-05T05:03:13.136Z,1011.54
2022-10-05T05:04:13.281Z,1011.51
2022-10-05T05:05:13.308Z,1011.53
2022-10-05T05:06:17.281Z,1011.50
2022-10-05T05:07:13.164Z,1011.51
2022-10-05T05:08:13.146Z,1011.49
2022-10-05T05:09:13.102Z,1011.51
2022-10-05T05:10:13.071Z,1011.48
2022-10-05T05:11:16.725Z,1011.47
2022-10-05T05:12:13.056Z,1011.46
2022-10-05T05:13:13.227Z,1011.46
2022-10-05T05:14:13.024Z,1011.46
2022-10-05T05:15:12.992Z,1011.47
2022-10-05T05:16:13.059Z,1011.46
2022-10-05T05:17:13.435Z,1011.46
2022-10-05T05:18:12.975Z,1011.47
2022-10-05T05:19:12.924Z,1011.45
2022-10-05T05:20:12.945Z,1011.44
2022-10-05T05:21:12.994Z,1011.47
2022-10-05T05:22:12.952Z,1011.44
2022-10-05T05:23:12.907Z,1011.46
2022-10-05T05:24:12.885Z,1011.44
2022-10-05T05:25:12.918Z,1011.42
2022-10-05T05:26:13.017Z,1011.44
2022-10-05T05:27:12.882Z,1011.44
2022-10-05T05:28:12.995Z,1011.45
2022-10-05T05:29:12.853Z,1011.45
2022-10-05T05:30:12.780Z,1011.44
2022-10-05T05:31:12.961Z,1011.46
2022-10-05T05:32:12.784Z,1011.43
2022-10-05T05:33:12.853Z,1011.45
2022-10-05T05:34:12.809Z,1011.43
2022-10-05T05:35:12.892Z,1011.45
2022-10-05T05:36:12.766Z,1011.45
2022-10-05T05:37:12.817Z,1011.44
2022-10-05T05:38:12.810Z,1011.43
2022-10-05T05:39:12.781Z,1011.45
2022-10-05T05:40:12.808Z,1011.44
2022-10-05T05:41:12.794Z,1011.41
2022-10-05T05:42:12.726Z,1011.41
2022-10-05T05:43:12.744Z,1011.42
2022-10-05T05:44:12.757Z,1011.44
2022-10-05T05:45:12.725Z,1011.41
2022-10-05T05:46:12.651Z,1011.42
2022-10-05T05:47:13.136Z,1011.42
2022-10-05T05:48:12.596Z,1011.39
2022-10-05T05:49:12.656Z,1011.43
2022-10-05T05:50:12.558Z,1011.39
2022-10-05T05:51:12.623Z,1011.42
2022-10-05T05:52:12.584Z,1011.38
2022-10-05T05:53:12.565Z,1011.40
2022-10-05T05:54:12.570Z,1011.37
2022-10-05T05:55:12.528Z,1011.37
2022-10-05T05:56:12.535Z,1011.37
2022-10-05T05:57:12.516Z,1011.37
2022-10-05T05:58:12.502Z,1011.34
2022-10-05T05:59:12.492Z,1011.37
2022-10-05T06:00:12.507Z,1011.39
2022-10-05T06:01:30.735Z,1011.37
2022-10-05T06:02:12.572Z,1011.39
2022-10-05T06:03:12.626Z,1011.39
2022-10-05T06:04:12.443Z,1011.39
2022-10-05T06:05:12.435Z,1011.41
2022-10-05T06:06:12.466Z,1011.37
2022-10-05T06:07:12.427Z,1011.41
2022-10-05T06:08:12.431Z,1011.40
2022-10-05T06:09:12.430Z,1011.41
2022-10-05T06:10:12.400Z,1011.39
2022-10-05T06:11:12.348Z,1011.40
2022-10-05T06:12:12.454Z,1011.43
2022-10-05T06:13:12.383Z,1011.39
2022-10-05T06:14:12.422Z,1011.40
2022-10-05T06:15:12.377Z,1011.39
2022-10-05T06:16:12.392Z,1011.39
2022-10-05T06:17:12.332Z,1011.35
2022-10-05T06:18:12.291Z,1011.39
2022-10-05T06:19:12.275Z,1011.35
2022-10-05T06:20:12.304Z,1011.34
2022-10-05T06:21:12.251Z,1011.36
2022-10-05T06:22:12.317Z,1011.35
2022-10-05T06:23:12.241Z,1011.41
2022-10-05T06:24:12.237Z,1011.42
2022-10-05T06:25:12.295Z,1011.42
2022-10-05T06:26:12.221Z,1011.42
2022-10-05T06:27:12.246Z,1011.42
2022-10-05T06:28:12.349Z,1011.42
2022-10-05T06:29:12.224Z,1011.45
2022-10-05T06:30:12.194Z,1011.46
2022-10-05T06:31:12.275Z,1011.46
2022-10-05T06:32:12.161Z,1011.46
2022-10-05T06:33:12.138Z,1011.47
2022-10-05T06:34:12.122Z,1011.49
2022-10-05T06:35:12.142Z,1011.49
2022-10-05T06:36:12.142Z,1011.48
2022-10-05T06:37:12.093Z,1011.52
2022-10-05T06:38:12.098Z,1011.47
2022-10-05T06:39:12.106Z,1011.50
2022-10-05T06:40:12.064Z,1011.49
2022-10-05T06:41:12.059Z,1011.50
2022-10-05T06:42:12.073Z,1011.51
2022-10-05T06:43:12.084Z,1011.49
2022-10-05T06:44:12.063Z,1011.49
2022-10-05T06:45:12.064Z,1011.54
2022-10-05T06:46:12.209Z,1011.49
2022-10-05T06:47:12.124Z,1011.51
2022-10-05T06:48:11.998Z,1011.54
2022-10-05T06:49:12.098Z,1011.49
2022-10-05T06:50:11.983Z,1011.52
2022-10-05T06:51:11.958Z,1011.47
2022-10-05T06:52:11.987Z,1011.48
2022-10-05T06:53:11.993Z,1011.52
2022-10-05T06:54:11.925Z,1011.51
2022-10-05T06:55:14.275Z,1011.47
2022-10-05T06:56:11.960Z,1011.49
2022-10-05T06:57:12.102Z,1011.49
2022-10-05T06:58:11.942Z,1011.49
2022-10-05T06:59:11.966Z,1011.45
2022-10-05T07:00:11.996Z,1011.47
2022-10-05T07:01:11.866Z,1011.52
2022-10-05T07:02:11.904Z,1011.49
2022-10-05T07:03:11.874Z,1011.44
2022-10-05T07:04:11.902Z,1011.45
2022-10-05T07:05:12.124Z,1011.43
2022-10-05T07:06:11.845Z,1011.46
2022-10-05T07:07:11.830Z,1011.44
2022-10-05T07:08:11.830Z,1011.41
2022-10-05T07:09:11.779Z,1011.45
2022-10-05T07:10:11.809Z,1011.45
2022-10-05T07:11:11.785Z,1011.42
2022-10-05T07:12:11.804Z,1011.42
2022-10-05T07:13:11.795Z,1011.43
2022-10-05T07:14:11.715Z,1011.41
2022-10-05T07:15:11.762Z,1011.45
2022-10-05T07:16:11.781Z,1011.42
2022-10-05T07:17:11.703Z,1011.45
2022-10-05T07:18:26.045Z,1011.48
2022-10-05T07:19:11.682Z,1011.44
2022-10-05T07:20:11.661Z,1011.51
2022-10-05T07:21:11.663Z,1011.44
2022-10-05T07:22:11.743Z,1011.47
2022-10-05T07:23:11.613Z,1011.47
2022-10-05T07:24:11.625Z,1011.47
2022-10-05T07:25:11.584Z,1011.50
2022-10-05T07:26:11.608Z,1011.48
2022-10-05T07:27:40.102Z,1011.50
2022-10-05T07:28:11.591Z,1011.51
2022-10-05T07:29:11.584Z,1011.58
2022-10-05T07:30:11.536Z,1011.64
2022-10-05T07:31:11.673Z,1011.57
2022-10-05T07:33:25.840Z,1011.59
2022-10-05T07:34:26.753Z,1011.62
2022-10-05T07:35:26.689Z,1011.62
2022-10-05T07:36:26.741Z,1011.62
2022-10-05T07:37:26.844Z,1011.66
2022-10-05T07:38:26.708Z,1011.66
2022-10-05T07:39:42.117Z,1011.66
2022-10-05T07:40:26.702Z,1011.70
2022-10-05T07:41:26.739Z,1011.68
2022-10-05T07:42:26.688Z,1011.69
2022-10-05T07:43:32.099Z,1011.69
2022-10-05T07:44:26.630Z,1011.72
2022-10-05T07:45:26.674Z,1011.81
2022-10-05T07:48:12.363Z,1011.69
2022-10-05T07:49:13.296Z,1011.69
2022-10-05T07:50:13.236Z,1011.68
2022-10-05T07:51:13.262Z,1011.65
2022-10-05T07:52:44.943Z,1011.68
2022-10-05T07:53:13.416Z,1011.68
2022-10-05T07:54:13.382Z,1011.66
2022-10-05T07:55:13.234Z,1011.68
2022-10-05T07:56:13.186Z,1011.69
2022-10-05T07:57:13.254Z,1011.75
2022-10-05T07:58:13.237Z,1011.67
2022-10-05T07:59:13.305Z,1011.66
2022-10-05T08:00:13.212Z,1011.69
2022-10-05T08:01:13.237Z,1011.68
2022-10-05T08:02:13.434Z,1011.71
2022-10-05T08:03:13.195Z,1011.70
2022-10-05T08:04:13.179Z,1011.69
2022-10-05T08:05:13.103Z,1011.69
2022-10-05T08:06:13.186Z,1011.66
2022-10-05T08:07:13.492Z,1011.67
2022-10-05T08:08:15.491Z,1011.71
2022-10-05T08:09:13.339Z,1011.70
2022-10-05T08:10:13.255Z,1011.72
2022-10-05T08:11:13.005Z,1011.72
2022-10-05T08:12:13.846Z,1011.69
2022-10-05T08:13:13.039Z,1011.72
2022-10-05T08:14:13.216Z,1011.71
2022-10-05T08:15:13.165Z,1011.73
2022-10-05T08:16:13.338Z,1011.69
2022-10-05T08:17:13.343Z,1011.73
2022-10-05T08:18:13.098Z,1011.65
2022-10-05T08:19:13.022Z,1011.73
2022-10-05T08:20:13.044Z,1011.69
2022-10-05T08:21:12.945Z,1011.72
2022-10-05T08:22:13.041Z,1011.71
2022-10-05T08:23:13.125Z,1011.67
2022-10-05T08:24:12.949Z,1011.70
2022-10-05T08:25:13.023Z,1011.67
2022-10-05T08:26:12.893Z,1011.67
2022-10-05T08:27:12.926Z,1011.69
2022-10-05T08:28:12.982Z,1011.62
2022-10-05T08:29:14.061Z,1011.66
2022-10-05T08:30:13.005Z,1011.64
2022-10-05T08:31:12.840Z,1011.61
2022-10-05T08:32:12.886Z,1011.66
2022-10-05T08:33:12.848Z,1011.64
2022-10-05T08:34:12.794Z,1011.64
2022-10-05T08:35:12.826Z,1011.62
2022-10-05T08:36:12.762Z,1011.63
2022-10-05T08:37:12.820Z,1011.59
2022-10-05T08:38:12.752Z,1011.60
2022-10-05T08:39:12.747Z,1011.56
2022-10-05T08:40:12.791Z,1011.57
2022-10-05T08:41:12.768Z,1011.59
2022-10-05T08:42:12.733Z,1011.59
2022-10-05T08:43:12.734Z,1011.60
2022-10-05T08:44:12.724Z,1011.61
2022-10-05T08:45:12.733Z,1011.59
2022-10-05T08:46:12.832Z,1011.59
2022-10-05T08:47:13.090Z,1011.59
2022-10-05T08:48:12.697Z,1011.60
2022-10-05T08:49:12.627Z,1011.56
2022-10-05T08:50:12.858Z,1011.57
2022-10-05T08:51:12.640Z,1011.55
2022-10-05T08:52:12.727Z,1011.58
2022-10-05T08:53:12.654Z,1011.59
2022-10-05T08:54:12.650Z,1011.56
2022-10-05T08:55:12.605Z,1011.56
2022-10-05T08:56:15.333Z,1011.60
2022-10-05T08:57:12.623Z,1011.61
2022-10-05T08:58:12.552Z,1011.56
2022-10-05T08:59:12.566Z,1011.54
2022-10-05T09:00:12.889Z,1011.54
2022-10-05T09:01:12.767Z,1011.53
2022-10-05T09:02:12.848Z,1011.58
2022-10-05T09:03:12.455Z,1011.52
2022-10-05T09:04:12.518Z,1011.55
2022-10-05T09:05:12.616Z,1011.55
2022-10-05T09:06:12.469Z,1011.52
2022-10-05T09:07:12.435Z,1011.54
2022-10-05T09:08:12.513Z,1011.50
2022-10-05T09:09:12.440Z,1011.50
2022-10-05T09:10:12.494Z,1011.47
2022-10-05T09:11:12.380Z,1011.47
2022-10-05T09:12:12.395Z,1011.44
2022-10-05T09:13:12.417Z,1011.45
2022-10-05T09:14:12.380Z,1011.46
2022-10-05T09:15:25.354Z,1011.44
2022-10-05T09:16:12.574Z,1011.48
2022-10-05T09:17:12.349Z,1011.48
2022-10-05T09:18:12.375Z,1011.44
2022-10-05T09:19:12.298Z,1011.46
2022-10-05T09:20:12.286Z,1011.49
2022-10-05T09:21:12.299Z,1011.45
2022-10-05T09:22:12.264Z,1011.44
2022-10-05T09:23:12.337Z,1011.43
2022-10-05T09:24:12.250Z,1011.43
2022-10-05T09:25:12.267Z,1011.44
2022-10-05T09:26:12.238Z,1011.43
2022-10-05T09:27:12.267Z,1011.45
2022-10-05T09:28:12.265Z,1011.43
2022-10-05T09:29:12.221Z,1011.44
2022-10-05T09:30:12.178Z,1011.43
2022-10-05T09:31:12.300Z,1011.40
2022-10-05T09:32:16.347Z,1011.46
2022-10-05T09:33:12.172Z,1011.41
2022-10-05T09:34:12.122Z,1011.45
2022-10-05T09:35:12.136Z,1011.44
2022-10-05T09:36:12.107Z,1011.43
2022-10-05T09:37:12.116Z,1011.44
2022-10-05T09:38:12.142Z,1011.41
2022-10-05T09:39:12.068Z,1011.43
2022-10-05T09:40:12.051Z,1011.41
2022-10-05T09:41:12.100Z,1011.39
2022-10-05T09:42:12.114Z,1011.36
2022-10-05T09:43:12.093Z,1011.38
2022-10-05T09:44:12.012Z,1011.38
2022-10-05T09:45:12.100Z,1011.38
2022-10-05T09:46:12.092Z,1011.37
2022-10-05T09:47:12.025Z,1011.33
2022-10-05T09:48:12.074Z,1011.28
2022-10-05T09:49:11.988Z,1011.31
2022-10-05T09:50:12.013Z,1011.31
2022-10-05T09:51:11.965Z,1011.29
2022-10-05T09:52:16.446Z,1011.27
2022-10-05T09:53:11.964Z,1011.27
2022-10-05T09:54:11.944Z,1011.24
2022-10-05T09:55:11.917Z,1011.25
2022-10-05T09:56:11.884Z,1011.25
2022-10-05T09:57:11.931Z,1011.21
2022-10-05T09:58:11.862Z,1011.16
2022-10-05T09:59:11.942Z,1011.18
2022-10-05T10:00:11.925Z,1011.18
2022-10-05T10:01:29.024Z,1011.22
2022-10-05T10:02:11.948Z,1011.20
2022-10-05T10:03:11.848Z,1011.20
2022-10-05T10:04:12.081Z,1011.22
2022-10-05T10:05:11.841Z,1011.13
2022-10-05T10:06:11.798Z,1011.16
2022-10-05T10:07:11.800Z,1011.16
2022-10-05T10:08:11.851Z,1011.15
2022-10-05T10:09:11.755Z,1011.17
2022-10-05T10:10:11.813Z,1011.14
2022-10-05T10:11:11.864Z,1011.12
2022-10-05T10:12:11.956Z,1011.06
2022-10-05T10:13:11.719Z,1011.12
2022-10-05T10:14:11.829Z,1011.09
2022-10-05T10:15:11.881Z,1011.04
2022-10-05T10:16:11.828Z,1011.03
2022-10-05T10:17:11.689Z,1011.03
2022-10-05T10:18:11.700Z,1011.05
2022-10-05T10:19:11.649Z,1011.04
2022-10-05T10:20:11.656Z,1010.99
2022-10-05T10:21:11.671Z,1011.01
2022-10-05T10:22:11.713Z,1010.98
2022-10-05T10:23:11.601Z,1011.02
2022-10-05T10:24:11.647Z,1011.00
2022-10-05T10:25:11.621Z,1011.07
2022-10-05T10:26:11.640Z,1010.97
2022-10-05T10:27:11.613Z,1010.94
2022-10-05T10:28:11.656Z,1010.96
2022-10-05T10:29:11.547Z,1010.96
2022-10-05T10:30:11.633Z,1011.04
2022-10-05T10:31:11.561Z,1011.01
2022-10-05T10:32:11.527Z,1010.99
2022-10-05T10:33:11.537Z,1010.97
2022-10-05T10:34:11.493Z,1011.00
2022-10-05T10:35:11.502Z,1010.92
2022-10-05T10:36:11.469Z,1010.96
2022-10-05T10:37:11.478Z,1010.93
2022-10-05T10:38:11.530Z,1010.96
2022-10-05T10:39:11.488Z,1010.94
2022-10-05T10:40:11.471Z,1010.97
2022-10-05T10:41:11.410Z,1010.94
2022-10-05T10:42:11.429Z,1010.96
2022-10-05T10:43:11.411Z,1010.91
2022-10-05T10:44:11.414Z,1010.91
2022-10-05T10:45:11.434Z,1010.93
2022-10-05T10:46:11.391Z,1010.90
2022-10-05T10:47:11.360Z,1010.92
2022-10-05T10:48:11.354Z,1010.92
2022-10-05T10:49:11.359Z,1010.90
2022-10-05T10:50:11.346Z,1010.91
2022-10-05T10:51:11.314Z,1010.91
2022-10-05T10:52:11.316Z,1010.87
2022-10-05T10:53:11.340Z,1010.88
2022-10-05T10:54:11.298Z,1010.87
2022-10-05T10:55:11.514Z,1010.90
2022-10-05T10:56:11.289Z,1010.84
2022-10-05T10:57:11.266Z,1010.87
2022-10-05T10:58:15.869Z,1010.84
2022-10-05T10:59:11.298Z,1010.80
2022-10-05T11:00:11.317Z,1010.83
2022-10-05T11:01:11.310Z,1010.82
2022-10-05T11:02:11.324Z,1010.83
2022-10-05T11:03:11.270Z,1010.81
2022-10-05T11:04:11.219Z,1010.79
2022-10-05T11:05:11.392Z,1010.76
2022-10-05T11:06:11.170Z,1010.78
2022-10-05T11:07:11.226Z,1010.72
2022-10-05T11:08:11.147Z,1010.78
2022-10-05T11:09:11.151Z,1010.76
2022-10-05T11:10:11.144Z,1010.74
2022-10-05T11:11:11.163Z,1010.77
2022-10-05T11:12:11.092Z,1010.76
2022-10-05T11:13:11.127Z,1010.72
2022-10-05T11:14:11.102Z,1010.69
2022-10-05T11:15:11.145Z,1010.68
2022-10-05T11:16:12.501Z,1010.67
2022-10-05T11:17:11.136Z,1010.64
2022-10-05T11:18:11.158Z,1010.66
2022-10-05T11:19:11.046Z,1010.61
2022-10-05T11:20:11.012Z,1010.56
2022-10-05T11:21:11.033Z,1010.58
2022-10-05T11:22:11.114Z,1010.55
2022-10-05T11:23:10.986Z,1010.44
2022-10-05T11:24:10.989Z,1010.51
2022-10-05T11:25:11.071Z,1010.46
2022-10-05T11:26:10.946Z,1010.41
2022-10-05T11:27:11.050Z,1010.42
2022-10-05T11:28:11.018Z,1010.40
2022-10-05T11:29:10.939Z,1010.37
2022-10-05T11:30:10.957Z,1010.41
2022-10-05T11:31:10.949Z,1010.26
2022-10-05T11:32:13.191Z,1010.35
2022-10-05T11:33:11.628Z,1010.23
2022-10-05T11:34:10.888Z,1010.25
2022-10-05T11:35:10.892Z,1010.27
2022-10-05T11:36:10.853Z,1010.19
2022-10-05T11:37:10.840Z,1010.18
2022-10-05T11:38:10.888Z,1010.20
2022-10-05T11:39:10.858Z,1010.16
2022-10-05T11:40:10.845Z,1010.12
2022-10-05T11:41:09.820Z,1010.11
2022-10-05T11:42:10.881Z,1010.07
2022-10-05T11:43:10.832Z,1010.04
2022-10-05T11:44:10.798Z,1010.02
2022-10-05T11:45:10.782Z,1010.04
2022-10-05T11:46:10.804Z,1009.98
2022-10-05T11:47:10.750Z,1009.98
2022-10-05T11:48:10.778Z,1009.99
2022-10-05T11:49:10.843Z,1009.90
2022-10-05T11:50:10.764Z,1009.94
2022-10-05T11:51:10.803Z,1009.91
2022-10-05T11:52:10.665Z,1009.90
2022-10-05T11:53:10.698Z,1009.89
2022-10-05T11:54:10.696Z,1009.84
2022-10-05T11:55:12.236Z,1009.86
2022-10-05T11:56:10.709Z,1009.82
2022-10-05T11:57:10.708Z,1009.83
2022-10-05T11:58:10.729Z,1009.82
2022-10-05T11:59:10.714Z,1009.70
2022-10-05T12:00:10.595Z,1009.72
2022-10-05T12:01:10.600Z,1009.74
2022-10-05T12:02:10.589Z,1009.69
2022-10-05T12:03:10.666Z,1009.68
2022-10-05T12:04:10.742Z,1009.72
2022-10-05T12:05:10.948Z,1009.64
2022-10-05T12:06:10.547Z,1009.71
2022-10-05T12:07:10.551Z,1009.63
2022-10-05T12:08:10.572Z,1009.69
2022-10-05T12:09:10.540Z,1009.63
2022-10-05T12:10:10.544Z,1009.57